Pagrindinis puslapis
METAR-TAF:

METAR-TAF

Oro uostai :

Maragheh, Iranas

platuma: 37-20-55N, ilguma: 046-07-35E, Aukštis: 1340 m

Dabartinis oras

Ataskaita buvo paskelbta 1 valandą ir 45 minutes, ne 18:00 UTC
Vėjas 4 kt iš Rytų/Pietryčių
Temperatūra 10°C
Drėgmė 34%
Slėgis 1016 hPa
Matomumas 10 km arba daugiau
nėra debesų žemiau 1500 m ir nėra kamuolinių lietaus debesų

METAR: OITM 131800Z 12004KT CAVOK 10/M05 Q1016

Laikas: 00:15 (19:45 UTC)


TAF: trūkstamas

Orai ataskaitas ir orų prognozės (METAR, TAF).

turimą stotys yra geltonos ir raudonos taškus žemėlapyje.

Perkelti pele per norėdami pamatyti stoties vardą.

Tada spustelėkite, norėdami matyti oro stebėjimo ir prognozės.

Norėdami pakeisti žemėlapį: spustelėkite ant žalios mygtukų su juodo kryžiaus žemyn,; žalią mygtuką su brūkšneliu, jei norite nutolinti; arba žalių rodyklių gretimoms žemėlapius.


METAR-TAF: